Time;durP1;ratioP1;P1;durP2;ratioP2;P2;SDS_P1;SDS_P2;PMS_P1;PMS_P2;Temp;Humidity;BMP_temperature;BMP_pressure;BME280_temperature;BME280_humidity;BME280_pressure;Samples;Min_cycle;Max_cycle;Signal;HPM_P1;HPM_P2
2023/05/05 00:00:22;;;;;;;5.72;4.15;;;;;;;10.54;51.31;101375.44;7401207;19;20018;-67
2023/05/05 00:02:50;;;;;;;5.72;3.90;;;;;;;10.51;51.36;101375.44;7398768;19;20023;-66
2023/05/05 00:05:23;;;;;;;5.57;3.88;;;;;;;10.48;51.55;101378.13;7398914;19;20022;-67
2023/05/05 00:07:51;;;;;;;7.05;4.65;;;;;;;10.42;51.77;101380.81;7401555;19;20018;-67
2023/05/05 00:10:20;;;;;;;9.13;3.85;;;;;;;10.39;51.83;101378.25;7398566;19;20011;-67
2023/05/05 00:12:49;;;;;;;6.38;3.58;;;;;;;10.35;52.04;101381.72;7400551;19;20022;-67
2023/05/05 00:15:17;;;;;;;8.57;4.05;;;;;;;10.30;52.26;101378.28;7400838;19;20046;-66
2023/05/05 00:17:46;;;;;;;8.15;4.07;;;;;;;10.24;52.63;101372.22;7398520;19;20010;-67
2023/05/05 00:20:14;;;;;;;7.93;3.92;;;;;;;10.17;52.90;101373.16;7400744;19;20015;-66
2023/05/05 00:22:45;;;;;;;6.97;4.43;;;;;;;10.13;53.12;101367.97;7400301;19;20086;-67
2023/05/05 00:25:14;;;;;;;5.28;4.45;;;;;;;10.08;53.23;101365.41;7400915;19;20368;-66
2023/05/05 00:27:42;;;;;;;6.53;4.18;;;;;;;10.03;53.56;101375.06;7400384;19;20014;-66
2023/05/05 00:30:12;;;;;;;7.80;3.90;;;;;;;10.00;53.71;101369.84;7400698;19;20019;-66
2023/05/05 00:32:41;;;;;;;6.35;4.20;;;;;;;9.93;53.89;101369.91;7399936;19;20023;-66
2023/05/05 00:35:10;;;;;;;5.70;4.22;;;;;;;9.89;54.09;101368.19;7398057;19;20453;-66
2023/05/05 00:37:38;;;;;;;5.45;4.55;;;;;;;9.86;54.31;101362.13;7400041;19;20011;-67
2023/05/05 00:40:11;;;;;;;10.73;4.18;;;;;;;9.80;54.56;101360.41;7400064;19;20015;-67
2023/05/05 00:42:42;;;;;;;5.43;4.05;;;;;;;9.76;54.92;101363.94;7397307;19;20014;-66
2023/05/05 00:45:12;;;;;;;7.05;4.65;;;;;;;9.72;54.92;101364.84;7397388;19;20510;-66
2023/05/05 00:47:41;;;;;;;6.57;4.40;;;;;;;9.68;55.25;101357.88;7400096;19;20074;-66
2023/05/05 00:50:11;;;;;;;9.43;4.40;;;;;;;9.62;55.58;101359.66;7399658;19;20010;-66
2023/05/05 00:52:40;;;;;;;5.22;4.38;;;;;;;9.60;55.60;101363.19;7399816;19;20079;-66
2023/05/05 00:55:11;;;;;;;8.18;3.70;;;;;;;9.55;55.92;101357.97;7399686;19;20029;-66
2023/05/05 00:57:40;;;;;;;7.28;4.15;;;;;;;9.51;56.07;101356.25;7400214;19;20026;-66
2023/05/05 01:00:10;;;;;;;9.60;4.63;;;;;;;9.48;56.06;101358.91;7396989;19;20489;-66
2023/05/05 01:02:40;;;;;;;6.90;4.55;;;;;;;9.44;56.45;101350.22;7397225;19;20385;-67
2023/05/05 01:05:10;;;;;;;6.15;4.78;;;;;;;9.41;56.49;101354.59;7399522;19;20014;-66
2023/05/05 01:07:57;;;;;;;7.82;4.53;;;;;;;9.39;56.72;101351.09;7397125;19;20037;-67
2023/05/05 01:10:37;;;;;;;7.57;4.28;;;;;;;9.37;56.87;101352.88;7397508;19;20019;-67
2023/05/05 01:13:19;;;;;;;5.15;4.63;;;;;;;9.36;57.00;101352.00;7398744;19;20010;-66
2023/05/05 01:15:54;;;;;;;7.93;4.30;;;;;;;9.34;57.17;101348.53;7397454;19;20096;-65
2023/05/05 01:18:32;;;;;;;8.50;4.65;;;;;;;9.33;57.12;101348.56;7399148;19;20037;-66
2023/05/05 01:21:08;;;;;;;9.55;4.70;;;;;;;9.31;57.33;101347.69;7397086;19;20019;-66
2023/05/05 01:27:01;;;;;;;5.70;4.47;;;;;;;9.26;57.67;101339.84;7395155;19;20022;-67
2023/05/05 01:30:03;;;;;;;5.95;3.88;;;;;;;9.22;57.89;101349.47;7395020;19;20493;-67
2023/05/05 01:32:40;;;;;;;6.40;4.20;;;;;;;9.20;57.77;101345.13;7398261;19;20097;-67
2023/05/05 01:35:15;;;;;;;7.13;4.75;;;;;;;9.18;58.11;101353.00;7396878;19;20079;-67
2023/05/05 01:37:50;;;;;;;7.07;4.50;;;;;;;9.16;58.04;101349.50;7398880;19;20029;-67
2023/05/05 01:40:23;;;;;;;9.43;4.90;;;;;;;9.15;58.18;101354.75;7398059;19;20014;-67
2023/05/05 01:42:53;;;;;;;6.38;4.45;;;;;;;9.12;58.42;101346.06;7395892;19;20074;-67
2023/05/05 01:45:26;;;;;;;6.20;4.50;;;;;;;9.11;58.67;101351.28;7396226;19;20091;-65
2023/05/05 01:48:06;;;;;;;8.82;4.32;;;;;;;9.08;58.90;101351.31;7396650;19;20015;-65
2023/05/05 01:50:36;;;;;;;8.05;5.00;;;;;;;9.05;59.15;101354.81;7397675;19;20066;-65
2023/05/05 01:53:07;;;;;;;8.38;5.05;;;;;;;9.02;59.22;101346.97;7395906;19;20031;-66
2023/05/05 01:55:37;;;;;;;9.88;5.03;;;;;;;9.00;59.46;101347.88;7397550;19;20031;-65
2023/05/05 01:58:08;;;;;;;5.47;4.95;;;;;;;8.98;59.52;101345.25;7398331;19;20018;-65
2023/05/05 02:00:37;;;;;;;7.40;5.28;;;;;;;8.94;59.75;101349.63;7397381;19;20513;-65
2023/05/05 02:03:09;;;;;;;6.55;4.80;;;;;;;8.90;59.83;101345.31;7395604;19;20035;-66
2023/05/05 02:05:41;;;;;;;7.45;5.03;;;;;;;8.89;60.10;101340.09;7396002;19;20416;-66
2023/05/05 02:08:17;;;;;;;8.48;4.78;;;;;;;8.88;60.10;101346.19;7397332;19;20014;-65
2023/05/05 02:10:48;;;;;;;6.40;4.93;;;;;;;8.85;60.32;101346.22;7397895;19;20035;-65
2023/05/05 02:13:18;;;;;;;5.30;4.80;;;;;;;8.82;60.52;101344.50;7396672;19;20082;-65
2023/05/05 02:15:48;;;;;;;7.55;4.53;;;;;;;8.79;60.71;101347.97;7397056;19;20082;-65
2023/05/05 02:18:20;;;;;;;7.25;5.25;;;;;;;8.76;60.87;101341.91;7395208;19;20091;-65
2023/05/05 02:20:49;;;;;;;8.80;4.80;;;;;;;8.73;60.96;101344.50;7397625;19;20086;-65
2023/05/05 02:23:17;;;;;;;10.68;5.07;;;;;;;8.70;61.19;101355.88;7397101;19;20022;-66
2023/05/05 02:25:51;;;;;;;6.97;5.00;;;;;;;8.68;61.37;101348.91;7396333;19;20015;-65
2023/05/05 02:28:23;;;;;;;7.30;4.65;;;;;;;8.63;61.37;101355.03;7396693;19;20037;-65
2023/05/05 02:30:58;;;;;;;9.02;4.93;;;;;;;8.59;61.45;101348.06;7396634;19;20676;-66
2023/05/05 02:33:34;;;;;;;9.18;5.53;;;;;;;8.54;61.78;101349.81;7395910;19;20074;-66
2023/05/05 02:36:12;;;;;;;9.68;5.03;;;;;;;8.51;61.89;101351.59;7396253;19;20484;-66
2023/05/05 02:38:44;;;;;;;10.63;5.47;;;;;;;8.46;61.96;101354.22;7395243;19;20090;-66
2023/05/05 02:41:16;;;;;;;7.82;5.95;;;;;;;8.42;62.13;101355.94;7394533;19;20082;-66
2023/05/05 02:43:46;;;;;;;11.05;4.97;;;;;;;8.38;62.31;101348.09;7394119;19;20085;-66
2023/05/05 02:46:15;;;;;;;6.35;5.45;;;;;;;8.36;62.55;101358.56;7396172;19;20027;-66
2023/05/05 02:48:46;;;;;;;7.28;5.22;;;;;;;8.34;62.84;101342.03;7394094;19;20501;-66
2023/05/05 02:51:14;;;;;;;9.60;5.97;;;;;;;8.34;62.76;101343.75;7396486;19;20074;-66
2023/05/05 02:53:43;;;;;;;13.68;6.47;;;;;;;8.31;62.86;101342.00;7394246;19;20018;-66
2023/05/05 02:56:21;;;;;;;11.90;6.80;;;;;;;8.27;63.13;101345.53;7395528;19;20074;-66
2023/05/05 02:58:55;;;;;;;10.13;6.20;;;;;;;8.24;63.26;101338.56;7396303;19;20026;-66
2023/05/05 03:01:34;;;;;;;10.60;5.88;;;;;;;8.20;63.41;101342.06;7395621;19;20026;-67
2023/05/05 03:04:09;;;;;;;8.02;6.30;;;;;;;8.17;63.62;101338.59;7394438;19;20078;-66
2023/05/05 03:06:42;;;;;;;9.52;6.20;;;;;;;8.14;63.82;101337.69;7394232;19;20019;-66
2023/05/05 03:09:14;;;;;;;10.82;6.72;;;;;;;8.10;64.13;101337.69;7395930;19;20017;-66
2023/05/05 03:11:49;;;;;;;7.90;6.30;;;;;;;8.08;63.92;101335.09;7393344;19;20070;-67
2023/05/05 03:14:20;;;;;;;9.98;6.70;;;;;;;8.04;64.29;101328.16;7393905;19;20078;-66
2023/05/05 03:16:50;;;;;;;9.60;5.93;;;;;;;8.01;64.49;101340.34;7395651;19;20028;-66
2023/05/05 03:19:22;;;;;;;8.65;6.10;;;;;;;7.97;64.59;101332.53;7398047;19;20074;-66
2023/05/05 03:21:51;;;;;;;7.57;5.47;;;;;;;7.94;64.40;101329.91;7402541;19;20019;-66
2023/05/05 03:24:22;;;;;;;8.00;6.28;;;;;;;7.92;64.52;101329.03;7400362;19;20493;-66
2023/05/05 03:26:52;;;;;;;10.52;6.10;;;;;;;7.90;64.66;101329.88;7399763;19;20421;-67
2023/05/05 03:29:20;;;;;;;9.05;6.05;;;;;;;7.88;65.12;101331.66;7402798;19;20015;-67
2023/05/05 03:31:49;;;;;;;11.23;6.85;;;;;;;7.85;64.94;101336.88;7399082;19;20081;-66
2023/05/05 03:34:17;;;;;;;8.75;5.47;;;;;;;7.79;64.87;101329.91;7398938;19;20027;-66
2023/05/05 03:36:48;;;;;;;9.70;6.75;;;;;;;7.77;65.41;101331.66;7399495;19;20078;-65
2023/05/05 03:39:17;;;;;;;12.05;6.85;;;;;;;7.73;65.35;101338.63;7402471;19;20014;-66
2023/05/05 03:41:46;;;;;;;8.88;6.00;;;;;;;7.71;65.81;101334.25;7401039;19;20017;-66
2023/05/05 03:44:14;;;;;;;7.55;6.13;;;;;;;7.69;65.78;101336.88;7399195;19;20035;-66
2023/05/05 03:46:43;;;;;;;6.45;5.70;;;;;;;7.66;65.88;101331.69;7401717;19;20078;-66
2023/05/05 03:49:11;;;;;;;9.68;6.38;;;;;;;7.63;66.01;101337.78;7399006;19;20031;-66
2023/05/05 03:51:39;;;;;;;9.70;6.28;;;;;;;7.62;65.93;101338.63;7402205;19;20018;-66
2023/05/05 03:54:10;;;;;;;10.90;7.35;;;;;;;7.60;66.26;101335.13;7398985;19;20540;-66
2023/05/05 03:56:39;;;;;;;8.32;6.57;;;;;;;7.60;66.15;101352.56;7398805;19;20462;-66
2023/05/05 03:59:08;;;;;;;10.93;6.55;;;;;;;7.57;66.26;101343.00;7398863;19;20022;-66
2023/05/05 04:01:36;;;;;;;8.75;6.28;;;;;;;7.56;66.48;101340.38;7401101;19;20017;-66
2023/05/05 04:04:05;;;;;;;10.00;6.85;;;;;;;7.56;66.34;101343.84;7398632;19;20357;-66
2023/05/05 04:06:33;;;;;;;11.35;6.55;;;;;;;7.54;66.61;101342.97;7397966;19;20484;-66
2023/05/05 04:09:02;;;;;;;10.95;6.47;;;;;;;7.53;66.88;101336.00;7401080;19;20234;-66
2023/05/05 04:11:33;;;;;;;10.57;6.68;;;;;;;7.50;66.91;101336.88;7398112;19;20014;-66
2023/05/05 04:14:01;;;;;;;7.57;6.88;;;;;;;7.49;67.09;101332.53;7398132;19;20031;-66
2023/05/05 04:16:30;;;;;;;9.30;6.20;;;;;;;7.47;67.13;101339.50;7397505;19;20383;-65
2023/05/05 04:18:58;;;;;;;14.48;6.55;;;;;;;7.47;67.21;101336.88;7400065;19;20024;-66
2023/05/05 04:21:27;;;;;;;10.13;7.07;;;;;;;7.48;67.24;101333.41;7400252;19;20031;-66
2023/05/05 04:23:56;;;;;;;13.68;7.15;;;;;;;7.48;67.44;101335.13;7398015;19;20032;-66
2023/05/05 04:26:26;;;;;;;26.02;14.60;;;;;;;7.49;67.75;101339.50;7400648;19;20015;-66
2023/05/05 04:28:57;;;;;;;27.75;17.00;;;;;;;7.50;67.83;101331.66;7399617;19;20019;-66
2023/05/05 04:31:25;;;;;;;49.35;28.80;;;;;;;7.52;67.84;101336.91;7400928;19;20382;-65
2023/05/05 04:33:54;;;;;;;14.15;10.18;;;;;;;7.54;68.04;101342.13;7397994;19;20090;-66
2023/05/05 04:36:22;;;;;;;11.93;8.10;;;;;;;7.56;67.95;101348.22;7397339;19;20018;-65
2023/05/05 04:38:51;;;;;;;10.57;7.13;;;;;;;7.59;68.00;101345.59;7399874;19;20035;-66
2023/05/05 04:41:20;;;;;;;14.13;6.82;;;;;;;7.60;67.89;101350.81;7398875;19;20031;-66
2023/05/05 04:43:48;;;;;;;11.68;7.25;;;;;;;7.63;68.03;101349.94;7396892;19;20036;-66
2023/05/05 04:46:19;;;;;;;8.45;6.72;;;;;;;7.66;67.97;101352.56;7399098;19;20477;-66
2023/05/05 04:48:48;;;;;;;11.68;7.32;;;;;;;7.68;68.11;101356.03;7399993;19;20035;-66
2023/05/05 04:51:16;;;;;;;11.30;7.32;;;;;;;7.71;67.86;101360.38;7396345;19;20505;-66
2023/05/05 04:53:45;;;;;;;10.57;7.18;;;;;;;7.74;68.00;101360.41;7398286;19;20026;-66
2023/05/05 04:56:13;;;;;;;13.45;7.60;;;;;;;7.77;67.80;101356.06;7399536;19;20022;-66
2023/05/05 04:58:42;;;;;;;9.90;7.68;;;;;;;7.81;67.83;101364.75;7398167;19;20377;-66
2023/05/05 05:01:10;;;;;;;13.23;7.40;;;;;;;7.87;67.75;101366.50;7398086;19;20091;-65
2023/05/05 05:03:41;;;;;;;12.40;8.15;;;;;;;7.91;67.60;101360.38;7396390;19;20014;-66
2023/05/05 05:06:10;;;;;;;13.57;8.52;;;;;;;7.97;67.61;101366.50;7396073;19;20022;-64
2023/05/05 05:08:38;;;;;;;12.18;8.30;;;;;;;8.03;67.61;101377.81;7397423;19;20031;-65
2023/05/05 05:11:07;;;;;;;9.48;7.60;;;;;;;8.08;67.38;101368.22;7396343;19;20027;-66
2023/05/05 05:13:35;;;;;;;16.95;8.52;;;;;;;8.12;67.08;101368.19;7396759;19;20027;-66
2023/05/05 05:16:04;;;;;;;11.60;8.50;;;;;;;8.18;67.02;101367.31;7397090;19;20018;-66
2023/05/05 05:18:32;;;;;;;10.57;8.82;;;;;;;8.25;66.78;101369.06;7397567;19;20018;-65
2023/05/05 05:21:04;;;;;;;11.73;8.90;;;;;;;8.31;66.64;101374.28;7397061;19;20028;-66
2023/05/05 05:23:32;;;;;;;13.35;9.57;;;;;;;8.40;66.59;101377.72;7397257;19;20093;-66
2023/05/05 05:26:01;;;;;;;13.85;9.32;;;;;;;8.47;66.23;101374.25;7397540;19;20015;-66
2023/05/05 05:28:29;;;;;;;17.80;9.65;;;;;;;8.57;66.25;101369.88;7398393;19;20014;-66
2023/05/05 05:30:58;;;;;;;13.10;9.45;;;;;;;8.67;66.01;101368.06;7398559;19;20036;-66
2023/05/05 05:33:26;;;;;;;15.70;8.70;;;;;;;8.75;65.59;101369.78;7397609;19;20015;-66
2023/05/05 05:35:55;;;;;;;15.25;9.00;;;;;;;8.85;65.47;101359.31;7395827;19;20026;-66
2023/05/05 05:38:26;;;;;;;20.92;13.57;;;;;;;8.98;65.32;101365.34;7395451;19;20426;-66
2023/05/05 05:40:55;;;;;;;14.57;10.27;;;;;;;9.10;64.98;101362.66;7395442;19;20363;-66
2023/05/05 05:43:23;;;;;;;17.50;10.88;;;;;;;9.21;64.61;101359.97;7395166;19;20021;-66
2023/05/05 05:45:52;;;;;;;16.75;10.10;;;;;;;9.32;64.28;101358.16;7398044;19;20019;-66
2023/05/05 05:48:23;;;;;;;14.32;10.38;;;;;;;9.43;63.92;101356.31;7395619;19;20022;-66
2023/05/05 05:50:52;;;;;;;14.70;9.98;;;;;;;9.56;63.64;101345.75;7395421;19;20014;-66
2023/05/05 05:53:20;;;;;;;14.75;10.88;;;;;;;9.68;63.15;101350.03;7396994;19;20018;-66
2023/05/05 05:55:51;;;;;;;16.02;11.00;;;;;;;9.81;62.55;101356.91;7397217;19;20489;-66
2023/05/05 05:58:20;;;;;;;15.73;11.82;;;;;;;9.92;62.18;101348.94;7397767;19;20015;-66
2023/05/05 06:00:49;;;;;;;15.38;11.70;;;;;;;10.04;61.96;101343.56;7396655;19;20035;-67
2023/05/05 06:03:18;;;;;;;15.77;11.73;;;;;;;10.15;61.57;101345.22;7395342;19;20019;-67
2023/05/05 06:05:47;;;;;;;16.38;10.98;;;;;;;10.25;61.13;101345.13;7396456;19;20031;-66
2023/05/05 06:08:15;;;;;;;14.25;10.18;;;;;;;10.29;60.81;101335.47;7396521;19;20029;-66
2023/05/05 06:10:44;;;;;;;17.73;11.00;;;;;;;10.42;60.34;101341.47;7396785;19;20043;-66
2023/05/05 06:13:15;;;;;;;17.55;12.10;;;;;;;10.51;59.77;101349.22;7396323;19;20018;-66
2023/05/05 06:15:44;;;;;;;16.30;11.10;;;;;;;10.59;59.73;101344.75;7397583;19;20041;-66
2023/05/05 06:18:12;;;;;;;14.68;11.60;;;;;;;10.66;59.35;101331.56;7396623;19;20015;-66
2023/05/05 06:20:42;;;;;;;16.00;11.52;;;;;;;10.74;59.09;101338.47;7396253;19;20481;-66
2023/05/05 06:23:10;;;;;;;20.38;11.00;;;;;;;10.82;58.90;101340.13;7395612;19;20018;-66
2023/05/05 06:25:39;;;;;;;13.63;10.25;;;;;;;10.89;58.54;101332.16;7395888;19;20078;-66
2023/05/05 06:28:07;;;;;;;18.58;11.27;;;;;;;10.98;58.22;101331.16;7396089;19;20019;-67
2023/05/05 06:30:38;;;;;;;15.18;10.75;;;;;;;11.05;57.86;101330.16;7394232;19;20026;-65
2023/05/05 06:33:28;;;;;;;17.60;10.90;;;;;;;11.14;57.54;101339.66;7395433;19;20020;-66
2023/05/05 06:35:57;;;;;;;16.35;10.65;;;;;;;11.23;57.34;101351.78;7395937;19;20019;-65
2023/05/05 06:38:25;;;;;;;21.05;11.07;;;;;;;11.29;56.93;101335.94;7395550;19;20023;-67
2023/05/05 06:40:54;;;;;;;19.98;10.77;;;;;;;11.38;56.75;101346.28;7393951;19;20031;-65
2023/05/05 06:43:30;;;;;;;15.57;10.73;;;;;;;11.49;56.23;101347.91;7393871;19;20544;-66
2023/05/05 06:46:01;;;;;;;15.60;10.18;;;;;;;11.60;56.03;101350.34;7395262;19;20019;-64
2023/05/05 06:48:30;;;;;;;15.13;10.02;;;;;;;11.68;55.82;101348.47;7394953;19;20493;-65
2023/05/05 06:50:58;;;;;;;14.30;10.02;;;;;;;11.76;55.48;101351.81;7394743;19;20031;-65
2023/05/05 06:53:27;;;;;;;16.52;10.25;;;;;;;11.84;55.28;101352.56;7393994;19;20035;-65
2023/05/05 06:55:55;;;;;;;15.80;10.27;;;;;;;11.91;55.02;101353.31;7395217;19;20022;-65
2023/05/05 06:58:24;;;;;;;13.90;9.43;;;;;;;12.00;55.01;101354.97;7395332;19;20085;-65
2023/05/05 07:00:52;;;;;;;14.38;10.32;;;;;;;12.06;54.78;101358.34;7393260;19;20014;-66
2023/05/05 07:03:24;;;;;;;16.33;10.35;;;;;;;12.14;54.49;101358.19;7393386;19;20029;-66
2023/05/05 07:05:53;;;;;;;16.52;9.20;;;;;;;12.23;54.54;101357.16;7393416;19;20031;-66
2023/05/05 07:08:22;;;;;;;12.07;8.00;;;;;;;12.31;54.55;101364.91;7396115;19;20378;-69
2023/05/05 07:10:50;;;;;;;13.05;9.30;;;;;;;12.38;54.39;101362.16;7394777;19;20022;-69
2023/05/05 07:13:19;;;;;;;17.13;8.50;;;;;;;12.48;54.16;101362.81;7393957;19;20039;-69
2023/05/05 07:15:47;;;;;;;16.75;9.00;;;;;;;12.56;54.19;101362.66;7394980;19;20018;-69
2023/05/05 07:18:17;;;;;;;15.63;9.55;;;;;;;12.62;53.69;101370.44;7394869;19;20065;-70
2023/05/05 07:20:48;;;;;;;17.77;9.35;;;;;;;12.68;53.51;101365.03;7393013;19;20015;-69
2023/05/05 07:23:16;;;;;;;15.10;8.65;;;;;;;12.76;53.51;101366.66;7394472;19;20018;-69
2023/05/05 07:25:45;;;;;;;14.98;8.95;;;;;;;12.83;53.30;101369.13;7395433;19;20031;-69
2023/05/05 07:28:14;;;;;;;16.42;9.05;;;;;;;12.92;53.23;101372.47;7393013;19;20208;-68
2023/05/05 07:30:43;;;;;;;11.77;8.25;;;;;;;12.99;52.65;101368.78;7392987;19;20514;-68
2023/05/05 07:33:11;;;;;;;12.23;7.72;;;;;;;13.06;52.16;101370.41;7394095;19;20024;-68
2023/05/05 07:35:40;;;;;;;12.68;8.50;;;;;;;13.13;52.25;101371.13;7394457;19;20022;-68
2023/05/05 07:38:11;;;;;;;11.45;7.63;;;;;;;13.20;52.04;101365.72;7394708;19;20022;-68
2023/05/05 07:40:39;;;;;;;15.18;6.97;;;;;;;13.28;51.74;101365.53;7392171;19;20011;-68
2023/05/05 07:43:14;;;;;;;16.42;7.50;;;;;;;13.37;51.52;101361.84;7392244;19;20036;-68
2023/05/05 07:45:43;;;;;;;11.05;6.93;;;;;;;13.46;51.40;101363.41;7394537;19;20098;-68
2023/05/05 07:48:11;;;;;;;10.57;6.13;;;;;;;13.55;51.34;101359.66;7393819;19;20481;-69
2023/05/05 07:50:40;;;;;;;11.18;6.85;;;;;;;13.64;51.11;101364.72;7391773;19;20521;-68
2023/05/05 07:53:11;;;;;;;11.98;6.72;;;;;;;13.74;50.93;101360.94;7392785;19;20073;-69
2023/05/05 07:55:40;;;;;;;8.65;6.72;;;;;;;13.84;50.58;101356.31;7394217;19;20090;-68
2023/05/05 07:58:09;;;;;;;13.52;7.18;;;;;;;13.94;50.44;101356.91;7393858;19;20022;-67
2023/05/05 08:00:38;;;;;;;12.43;6.68;;;;;;;14.03;50.41;101351.41;7393861;19;20006;-69
2023/05/05 08:03:07;;;;;;;10.75;6.88;;;;;;;14.13;49.89;101354.69;7392781;19;20432;-69
2023/05/05 08:05:35;;;;;;;11.63;6.45;;;;;;;14.23;49.92;101345.59;7397285;19;20014;-67
2023/05/05 08:08:04;;;;;;;15.48;6.57;;;;;;;14.32;49.52;101341.84;7400492;19;20018;-68
2023/05/05 08:10:36;;;;;;;9.77;6.18;;;;;;;14.40;48.99;101347.75;7400519;19;20018;-68
2023/05/05 08:13:04;;;;;;;16.65;6.40;;;;;;;14.49;49.22;101342.25;7399995;19;20035;-68
2023/05/05 08:15:33;;;;;;;11.35;6.82;;;;;;;14.58;48.92;101337.59;7400646;19;20018;-67
2023/05/05 08:18:01;;;;;;;11.38;6.18;;;;;;;14.65;48.52;101332.09;7400288;19;20035;-69
2023/05/05 08:20:30;;;;;;;12.07;5.97;;;;;;;14.75;48.30;101340.63;7400412;19;20026;-68
2023/05/05 08:22:59;;;;;;;10.75;5.82;;;;;;;14.82;48.21;101336.91;7398011;19;20022;-68
2023/05/05 08:25:28;;;;;;;8.88;5.57;;;;;;;14.91;48.02;101337.53;7400326;19;20545;-68
2023/05/05 08:27:59;;;;;;;10.25;5.65;;;;;;;14.97;47.84;101339.97;7397417;19;20019;-68
2023/05/05 08:30:27;;;;;;;9.77;5.82;;;;;;;15.07;47.79;101345.84;7400142;19;20514;-68
2023/05/05 08:32:56;;;;;;;8.75;5.85;;;;;;;15.15;47.11;101341.19;7399397;19;20018;-68
2023/05/05 08:35:24;;;;;;;9.75;5.15;;;;;;;15.22;47.02;101339.22;7397883;19;20015;-69
2023/05/05 08:37:53;;;;;;;10.05;5.57;;;;;;;15.31;46.64;101336.28;7399391;19;20045;-68
2023/05/05 08:40:25;;;;;;;8.55;5.40;;;;;;;15.40;46.85;101330.69;7399141;19;20140;-67
2023/05/05 08:42:53;;;;;;;9.85;6.22;;;;;;;15.50;46.81;101331.25;7395746;19;20028;-68
2023/05/05 08:45:25;;;;;;;19.95;11.40;;;;;;;15.60;46.36;101343.25;7396665;19;20078;-68
2023/05/05 08:47:53;;;;;;;9.65;5.20;;;;;;;15.70;46.31;101343.81;7398652;19;20018;-68
2023/05/05 08:50:26;;;;;;;17.77;5.65;;;;;;;15.79;45.56;101343.50;7396423;19;20031;-68
2023/05/05 08:52:59;;;;;;;9.88;5.47;;;;;;;15.89;45.64;101348.53;7398268;19;20022;-69
2023/05/05 08:55:35;;;;;;;9.88;5.07;;;;;;;15.95;44.92;101343.88;7398356;19;20014;-69
2023/05/05 08:58:04;;;;;;;9.20;5.07;;;;;;;16.04;45.04;101348.00;7399158;19;20027;-69
2023/05/05 09:00:36;;;;;;;9.65;5.28;;;;;;;16.11;43.81;101346.88;7395907;19;20022;-68
2023/05/05 09:03:06;;;;;;;9.10;4.97;;;;;;;16.20;44.34;101347.44;7396244;19;20481;-68
2023/05/05 09:05:34;;;;;;;8.88;5.18;;;;;;;16.24;43.39;101338.50;7398608;19;20014;-69
2023/05/05 09:08:03;;;;;;;9.48;5.05;;;;;;;16.33;43.79;101347.84;7396314;19;20031;-67
2023/05/05 09:10:32;;;;;;;7.55;5.03;;;;;;;16.39;43.54;101337.91;7397777;19;20018;-68
2023/05/05 09:13:01;;;;;;;10.15;5.18;;;;;;;16.48;43.06;101339.38;7395857;19;20014;-67
2023/05/05 09:15:31;;;;;;;7.15;4.72;;;;;;;16.58;43.33;101337.22;7395675;19;20086;-67
2023/05/05 09:18:04;;;;;;;9.43;4.82;;;;;;;16.66;42.50;101327.22;7398725;19;20023;-69
2023/05/05 09:20:36;;;;;;;7.60;5.00;;;;;;;16.73;42.45;101328.72;7396948;19;20078;-69
2023/05/05 09:23:12;;;;;;;10.63;4.80;;;;;;;16.82;42.12;101329.28;7396085;19;20486;-69
2023/05/05 09:25:41;;;;;;;11.93;4.90;;;;;;;16.90;42.12;101319.25;7396538;19;20035;-68
2023/05/05 09:28:11;;;;;;;7.25;4.75;;;;;;;16.99;41.71;101310.09;7398793;19;20485;-68
2023/05/05 09:30:41;;;;;;;8.77;5.15;;;;;;;17.06;41.60;101314.22;7396341;19;20018;-69
2023/05/05 09:33:12;;;;;;;6.82;4.40;;;;;;;17.12;41.11;101319.28;7395600;19;20014;-69
2023/05/05 09:35:52;;;;;;;6.63;3.92;;;;;;;17.21;39.88;101316.28;7399730;19;20027;-69
2023/05/05 09:38:22;;;;;;;9.20;4.35;;;;;;;17.32;40.04;101309.66;7396383;19;20021;-69
2023/05/05 09:40:51;;;;;;;6.47;4.60;;;;;;;17.44;40.44;101317.13;7397963;19;20089;-69
2023/05/05 09:43:22;;;;;;;6.70;4.32;;;;;;;17.58;40.23;101313.91;7395706;19;20014;-70
2023/05/05 09:45:51;;;;;;;6.50;3.85;;;;;;;17.74;40.24;101322.94;7397897;19;20124;-66
2023/05/05 09:48:32;;;;;;;7.65;3.92;;;;;;;17.94;39.81;101320.38;7396862;19;20018;-67
2023/05/05 09:51:01;;;;;;;12.70;5.50;;;;;;;18.10;39.22;101315.22;7397094;19;20026;-67
2023/05/05 09:53:42;;;;;;;8.20;4.20;;;;;;;18.26;37.69;101321.63;7394786;19;20494;-67
2023/05/05 09:56:11;;;;;;;6.63;3.85;;;;;;;18.39;38.96;101325.41;7397622;19;20018;-68
2023/05/05 09:58:40;;;;;;;6.10;4.20;;;;;;;18.51;38.59;101326.69;7396869;19;20369;-66
2023/05/05 10:01:24;;;;;;;8.90;3.88;;;;;;;18.64;38.05;101321.66;7397544;19;20019;-67
2023/05/05 10:03:55;;;;;;;5.97;4.32;;;;;;;18.75;38.24;101315.81;7395862;19;20035;-67
2023/05/05 10:06:41;;;;;;;9.43;4.65;;;;;;;18.87;38.05;101317.91;7397580;19;20018;-68
2023/05/05 10:09:09;;;;;;;9.77;4.90;;;;;;;18.96;38.21;101307.81;7397230;19;20032;-67
2023/05/05 10:11:38;;;;;;;10.90;4.13;;;;;;;19.04;38.09;101309.16;7397286;19;20030;-68
2023/05/05 10:14:09;;;;;;;6.60;3.75;;;;;;;19.16;38.16;101302.38;7396149;19;20031;-66
2023/05/05 10:16:38;;;;;;;7.28;4.05;;;;;;;19.27;38.25;101300.97;7394903;19;20031;-66
2023/05/05 10:19:13;;;;;;;12.57;5.03;;;;;;;19.38;36.68;101303.97;7396671;19;20074;-66
2023/05/05 10:21:43;;;;;;;8.98;4.55;;;;;;;19.48;37.02;101296.38;7395686;19;20014;-66
2023/05/05 10:24:21;;;;;;;9.85;4.07;;;;;;;19.54;37.15;101301.41;7394552;19;20026;-67
2023/05/05 10:26:51;;;;;;;7.18;4.40;;;;;;;19.63;36.82;101292.94;7393151;19;20026;-67
2023/05/05 10:29:31;;;;;;;7.53;4.50;;;;;;;19.71;36.29;101292.53;7396414;19;20032;-67
2023/05/05 10:32:06;;;;;;;6.63;4.25;;;;;;;19.81;36.04;101287.63;7397702;19;20022;-68
2023/05/05 10:34:50;;;;;;;4.03;3.55;;;;;;;19.89;36.28;101297.88;7393956;19;20487;-67
2023/05/05 10:37:19;;;;;;;;;;;;;;;19.94;36.43;101293.19;7395435;19;20022;-67
2023/05/05 10:39:48;;;;;;;9.18;4.40;;;;;;;19.99;36.47;101289.34;7393909;19;20251;-67
2023/05/05 10:42:18;;;;;;;5.10;3.47;;;;;;;20.06;35.59;101287.22;7395227;19;21018;-68
2023/05/05 10:44:47;;;;;;;4.35;3.40;;;;;;;20.11;35.64;101285.16;7394274;19;20018;-67
2023/05/05 10:47:17;;;;;;;9.63;3.92;;;;;;;20.15;35.00;101285.88;7394434;19;20124;-67
2023/05/05 10:49:55;;;;;;;7.03;4.00;;;;;;;20.22;34.89;101278.41;7393864;19;20024;-66
2023/05/05 10:52:32;;;;;;;16.58;3.97;;;;;;;20.29;34.62;101272.66;7395625;19;20423;-67
2023/05/05 10:55:09;;;;;;;7.07;4.05;;;;;;;20.40;33.59;101271.22;7394130;19;20035;-68
2023/05/05 10:57:42;;;;;;;10.63;4.03;;;;;;;20.49;33.40;101276.03;7395509;19;20019;-66
2023/05/05 11:00:11;;;;;;;11.13;4.43;;;;;;;20.61;33.88;101277.16;7395574;19;20028;-67
2023/05/05 11:02:40;;;;;;;8.25;3.88;;;;;;;20.69;33.92;101272.28;7394686;19;20039;-69
2023/05/05 11:05:16;;;;;;;6.65;3.97;;;;;;;20.77;34.24;101272.72;7394400;19;20023;-67
2023/05/05 11:07:46;;;;;;;9.60;5.28;;;;;;;20.89;33.95;101256.97;7394830;19;20014;-67
2023/05/05 11:10:16;;;;;;;9.02;4.78;;;;;;;21.02;33.17;101265.16;7393061;19;20011;-68
2023/05/05 11:13:21;;;;;;;9.85;4.25;;;;;;;21.17;31.64;101272.25;7393033;19;20018;-68
2023/05/05 11:15:50;;;;;;;5.78;4.20;;;;;;;21.28;31.92;101259.16;7391694;19;20010;-67
2023/05/05 11:18:43;;;;;;;11.07;4.03;;;;;;;21.42;30.72;101257.44;7394217;19;20015;-69
2023/05/05 11:21:16;;;;;;;9.20;4.35;;;;;;;21.47;30.67;101258.03;7392988;19;20014;-69
2023/05/05 11:23:50;;;;;;;9.68;4.22;;;;;;;21.49;31.45;101250.81;7392441;19;20014;-67
2023/05/05 11:26:20;;;;;;;7.57;4.05;;;;;;;21.54;31.67;101245.22;7392309;19;20411;-66
2023/05/05 11:29:04;;;;;;;8.70;4.18;;;;;;;21.59;31.97;101241.31;7393391;19;20015;-68
2023/05/05 11:31:33;;;;;;;11.63;4.60;;;;;;;21.69;31.82;101232.78;7394147;19;20021;-68
2023/05/05 11:34:29;;;;;;;8.32;4.43;;;;;;;21.80;31.49;101236.50;7392508;19;20102;-68
2023/05/05 11:37:03;;;;;;;6.25;2.90;;;;;;;21.88;30.81;101230.69;7392239;19;20094;-67
2023/05/05 11:39:43;;;;;;;6.93;3.60;;;;;;;21.98;31.08;101233.66;7397423;19;20022;-67
2023/05/05 11:42:26;;;;;;;13.95;3.80;;;;;;;22.06;29.90;101217.13;7400827;19;20018;-66
2023/05/05 11:44:56;;;;;;;6.18;3.72;;;;;;;22.11;30.32;101215.03;7397986;19;20014;-68